sensor_id;sensor_type;location;lat;lon;timestamp;temperature;humidity
34574;DHT22;20809;49.594;8.734;2022-08-19T00:00:21;19.90;99.90
34574;DHT22;20809;49.594;8.734;2022-08-19T00:03:22;19.80;99.90
34574;DHT22;20809;49.594;8.734;2022-08-19T00:06:23;19.90;99.90
34574;DHT22;20809;49.594;8.734;2022-08-19T00:09:24;19.90;99.90
34574;DHT22;20809;49.594;8.734;2022-08-19T00:12:25;19.90;99.90
34574;DHT22;20809;49.594;8.734;2022-08-19T00:15:26;19.90;99.90
34574;DHT22;20809;49.594;8.734;2022-08-19T00:18:28;19.80;99.90
34574;DHT22;20809;49.594;8.734;2022-08-19T00:21:28;19.90;99.90
34574;DHT22;20809;49.594;8.734;2022-08-19T00:24:29;19.90;99.90
34574;DHT22;20809;49.594;8.734;2022-08-19T00:27:30;19.90;99.90
34574;DHT22;20809;49.594;8.734;2022-08-19T00:30:30;19.90;99.90
34574;DHT22;20809;49.594;8.734;2022-08-19T00:33:32;19.90;99.90
34574;DHT22;20809;49.594;8.734;2022-08-19T00:36:33;19.80;99.90
34574;DHT22;20809;49.594;8.734;2022-08-19T00:39:34;19.70;99.90
34574;DHT22;20809;49.594;8.734;2022-08-19T00:42:34;19.70;99.90
34574;DHT22;20809;49.594;8.734;2022-08-19T00:45:35;19.70;99.90
34574;DHT22;20809;49.594;8.734;2022-08-19T00:48:36;19.80;99.90
34574;DHT22;20809;49.594;8.734;2022-08-19T00:51:37;19.80;99.90
34574;DHT22;20809;49.594;8.734;2022-08-19T00:54:39;19.80;99.90
34574;DHT22;20809;49.594;8.734;2022-08-19T00:59:13;19.80;99.90
34574;DHT22;20809;49.594;8.734;2022-08-19T01:02:18;19.90;99.90
34574;DHT22;20809;49.594;8.734;2022-08-19T01:05:26;19.80;99.90
34574;DHT22;20809;49.594;8.734;2022-08-19T01:08:30;19.80;99.90
34574;DHT22;20809;49.594;8.734;2022-08-19T01:11:34;19.80;99.90
34574;DHT22;20809;49.594;8.734;2022-08-19T01:14:37;19.90;99.90
34574;DHT22;20809;49.594;8.734;2022-08-19T01:17:40;19.90;99.90
34574;DHT22;20809;49.594;8.734;2022-08-19T01:20:42;19.90;99.90
34574;DHT22;20809;49.594;8.734;2022-08-19T01:23:44;19.90;99.90
34574;DHT22;20809;49.594;8.734;2022-08-19T01:26:50;19.80;99.90
34574;DHT22;20809;49.594;8.734;2022-08-19T01:29:51;19.80;99.90
34574;DHT22;20809;49.594;8.734;2022-08-19T01:32:53;19.80;99.90
34574;DHT22;20809;49.594;8.734;2022-08-19T01:36:07;19.90;99.90
34574;DHT22;20809;49.594;8.734;2022-08-19T01:39:20;19.90;99.90
34574;DHT22;20809;49.594;8.734;2022-08-19T01:42:21;19.90;99.90
34574;DHT22;20809;49.594;8.734;2022-08-19T01:45:25;19.90;99.90
34574;DHT22;20809;49.594;8.734;2022-08-19T01:48:26;19.90;99.90
34574;DHT22;20809;49.594;8.734;2022-08-19T01:51:31;19.90;99.90
34574;DHT22;20809;49.594;8.734;2022-08-19T01:54:32;19.90;99.90
34574;DHT22;20809;49.594;8.734;2022-08-19T01:57:33;19.90;99.90
34574;DHT22;20809;49.594;8.734;2022-08-19T02:00:34;19.90;99.90
34574;DHT22;20809;49.594;8.734;2022-08-19T02:03:35;19.90;99.90
34574;DHT22;20809;49.594;8.734;2022-08-19T02:06:36;19.90;99.90
34574;DHT22;20809;49.594;8.734;2022-08-19T02:09:40;19.90;99.90
34574;DHT22;20809;49.594;8.734;2022-08-19T02:12:40;19.80;99.90
34574;DHT22;20809;49.594;8.734;2022-08-19T02:15:42;19.80;99.90
34574;DHT22;20809;49.594;8.734;2022-08-19T02:18:43;19.80;99.90
34574;DHT22;20809;49.594;8.734;2022-08-19T02:22:07;19.80;99.90
34574;DHT22;20809;49.594;8.734;2022-08-19T02:25:14;19.80;99.90
34574;DHT22;20809;49.594;8.734;2022-08-19T02:28:15;19.90;99.90
34574;DHT22;20809;49.594;8.734;2022-08-19T02:31:18;19.90;99.90
34574;DHT22;20809;49.594;8.734;2022-08-19T02:34:19;19.90;99.90
34574;DHT22;20809;49.594;8.734;2022-08-19T02:37:20;19.90;99.90
34574;DHT22;20809;49.594;8.734;2022-08-19T02:40:48;19.90;99.90
34574;DHT22;20809;49.594;8.734;2022-08-19T02:43:50;19.90;99.90
34574;DHT22;20809;49.594;8.734;2022-08-19T02:46:51;19.90;99.90
34574;DHT22;20809;49.594;8.734;2022-08-19T02:49:52;19.90;99.90
34574;DHT22;20809;49.594;8.734;2022-08-19T02:52:55;19.90;99.90
34574;DHT22;20809;49.594;8.734;2022-08-19T02:55:57;19.80;99.90
34574;DHT22;20809;49.594;8.734;2022-08-19T02:58:58;19.80;99.90
34574;DHT22;20809;49.594;8.734;2022-08-19T03:02:00;19.70;99.90
34574;DHT22;20809;49.594;8.734;2022-08-19T03:05:07;19.70;99.90
34574;DHT22;20809;49.594;8.734;2022-08-19T03:08:17;19.70;99.90
34574;DHT22;20809;49.594;8.734;2022-08-19T03:11:27;19.70;99.90
34574;DHT22;20809;49.594;8.734;2022-08-19T03:14:35;19.70;99.90
34574;DHT22;20809;49.594;8.734;2022-08-19T03:17:36;19.70;99.90
34574;DHT22;20809;49.594;8.734;2022-08-19T03:20:45;19.70;99.90
34574;DHT22;20809;49.594;8.734;2022-08-19T03:23:47;19.60;99.90
34574;DHT22;20809;49.594;8.734;2022-08-19T03:26:52;19.50;99.90
34574;DHT22;20809;49.594;8.734;2022-08-19T03:29:53;19.50;99.90
34574;DHT22;20809;49.594;8.734;2022-08-19T03:32:54;19.50;99.90
34574;DHT22;20809;49.594;8.734;2022-08-19T03:39:10;19.30;99.90
34574;DHT22;20809;49.594;8.734;2022-08-19T03:42:13;19.20;99.90
34574;DHT22;20809;49.594;8.734;2022-08-19T03:45:17;19.20;99.90
34574;DHT22;20809;49.594;8.734;2022-08-19T03:48:18;19.20;99.90
34574;DHT22;20809;49.594;8.734;2022-08-19T03:51:22;19.10;99.90
34574;DHT22;20809;49.594;8.734;2022-08-19T03:54:24;19.10;99.90
34574;DHT22;20809;49.594;8.734;2022-08-19T03:57:25;19.20;99.90
34574;DHT22;20809;49.594;8.734;2022-08-19T04:00:26;19.20;99.90
34574;DHT22;20809;49.594;8.734;2022-08-19T04:03:27;19.20;99.90
34574;DHT22;20809;49.594;8.734;2022-08-19T04:06:31;19.20;99.90
34574;DHT22;20809;49.594;8.734;2022-08-19T04:09:35;19.30;99.90
34574;DHT22;20809;49.594;8.734;2022-08-19T04:12:37;19.30;99.90
34574;DHT22;20809;49.594;8.734;2022-08-19T04:15:44;19.30;99.90
34574;DHT22;20809;49.594;8.734;2022-08-19T04:18:50;19.30;99.90
34574;DHT22;20809;49.594;8.734;2022-08-19T04:21:54;19.30;99.90
34574;DHT22;20809;49.594;8.734;2022-08-19T04:24:55;19.20;99.90
34574;DHT22;20809;49.594;8.734;2022-08-19T04:27:56;19.20;99.90
34574;DHT22;20809;49.594;8.734;2022-08-19T04:30:59;19.30;99.90
34574;DHT22;20809;49.594;8.734;2022-08-19T04:34:01;19.40;99.90
34574;DHT22;20809;49.594;8.734;2022-08-19T04:37:05;19.40;99.90
34574;DHT22;20809;49.594;8.734;2022-08-19T04:40:12;19.50;99.90
34574;DHT22;20809;49.594;8.734;2022-08-19T04:43:31;19.50;99.90
34574;DHT22;20809;49.594;8.734;2022-08-19T04:46:33;19.40;99.90
34574;DHT22;20809;49.594;8.734;2022-08-19T04:49:34;19.40;99.90
34574;DHT22;20809;49.594;8.734;2022-08-19T04:52:34;19.40;99.90
34574;DHT22;20809;49.594;8.734;2022-08-19T04:55:39;19.40;99.90
34574;DHT22;20809;49.594;8.734;2022-08-19T04:58:43;19.40;99.90
34574;DHT22;20809;49.594;8.734;2022-08-19T05:01:44;19.40;99.90
34574;DHT22;20809;49.594;8.734;2022-08-19T05:04:48;19.50;99.90
34574;DHT22;20809;49.594;8.734;2022-08-19T05:07:49;19.60;99.90
34574;DHT22;20809;49.594;8.734;2022-08-19T05:10:51;19.60;99.90
34574;DHT22;20809;49.594;8.734;2022-08-19T05:13:52;19.70;99.90
34574;DHT22;20809;49.594;8.734;2022-08-19T05:16:53;19.80;99.90
34574;DHT22;20809;49.594;8.734;2022-08-19T05:19:54;19.90;99.90
34574;DHT22;20809;49.594;8.734;2022-08-19T05:23:14;19.90;99.90
34574;DHT22;20809;49.594;8.734;2022-08-19T05:26:16;20.00;99.90
34574;DHT22;20809;49.594;8.734;2022-08-19T05:29:19;20.00;99.90
34574;DHT22;20809;49.594;8.734;2022-08-19T05:32:20;20.10;99.90
34574;DHT22;20809;49.594;8.734;2022-08-19T05:35:23;20.20;99.90
34574;DHT22;20809;49.594;8.734;2022-08-19T05:38:24;20.30;99.90
34574;DHT22;20809;49.594;8.734;2022-08-19T05:41:27;20.30;99.90
34574;DHT22;20809;49.594;8.734;2022-08-19T05:44:31;20.40;99.90
34574;DHT22;20809;49.594;8.734;2022-08-19T05:47:32;20.50;99.90
34574;DHT22;20809;49.594;8.734;2022-08-19T05:50:35;20.60;99.90
34574;DHT22;20809;49.594;8.734;2022-08-19T05:53:36;20.80;99.90
34574;DHT22;20809;49.594;8.734;2022-08-19T05:56:37;21.10;99.90
34574;DHT22;20809;49.594;8.734;2022-08-19T05:59:38;21.60;99.90
34574;DHT22;20809;49.594;8.734;2022-08-19T06:02:42;22.10;99.90
34574;DHT22;20809;49.594;8.734;2022-08-19T06:05:43;22.70;99.90
34574;DHT22;20809;49.594;8.734;2022-08-19T06:08:44;23.10;99.90
34574;DHT22;20809;49.594;8.734;2022-08-19T06:11:53;23.30;99.90
34574;DHT22;20809;49.594;8.734;2022-08-19T06:14:55;23.40;99.90
34574;DHT22;20809;49.594;8.734;2022-08-19T06:18:01;23.50;99.90
34574;DHT22;20809;49.594;8.734;2022-08-19T06:21:02;23.50;99.90
34574;DHT22;20809;49.594;8.734;2022-08-19T06:24:06;23.40;99.90
34574;DHT22;20809;49.594;8.734;2022-08-19T06:27:07;23.30;99.90
34574;DHT22;20809;49.594;8.734;2022-08-19T06:30:08;23.30;99.90
34574;DHT22;20809;49.594;8.734;2022-08-19T06:33:10;23.30;99.90
34574;DHT22;20809;49.594;8.734;2022-08-19T06:36:26;23.40;99.90
34574;DHT22;20809;49.594;8.734;2022-08-19T06:39:41;23.40;99.90
34574;DHT22;20809;49.594;8.734;2022-08-19T06:42:42;23.50;99.90
34574;DHT22;20809;49.594;8.734;2022-08-19T06:45:43;23.50;99.90
34574;DHT22;20809;49.594;8.734;2022-08-19T06:48:45;23.60;99.90
34574;DHT22;20809;49.594;8.734;2022-08-19T06:51:46;23.70;99.90
34574;DHT22;20809;49.594;8.734;2022-08-19T06:54:50;23.90;99.90
34574;DHT22;20809;49.594;8.734;2022-08-19T06:57:51;24.20;99.90
34574;DHT22;20809;49.594;8.734;2022-08-19T07:00:53;24.50;99.90
34574;DHT22;20809;49.594;8.734;2022-08-19T07:03:54;24.90;99.90
34574;DHT22;20809;49.594;8.734;2022-08-19T07:06:59;25.20;99.90
34574;DHT22;20809;49.594;8.734;2022-08-19T07:10:01;25.30;99.90
34574;DHT22;20809;49.594;8.734;2022-08-19T07:13:03;25.40;99.90
34574;DHT22;20809;49.594;8.734;2022-08-19T07:19:05;25.60;99.90
34574;DHT22;20809;49.594;8.734;2022-08-19T07:22:07;25.60;99.90
34574;DHT22;20809;49.594;8.734;2022-08-19T07:25:09;25.50;99.90
34574;DHT22;20809;49.594;8.734;2022-08-19T07:28:12;25.80;99.90
34574;DHT22;20809;49.594;8.734;2022-08-19T07:31:16;26.00;99.90
34574;DHT22;20809;49.594;8.734;2022-08-19T07:34:18;25.80;99.90
34574;DHT22;20809;49.594;8.734;2022-08-19T07:37:19;25.40;99.90
34574;DHT22;20809;49.594;8.734;2022-08-19T07:40:20;24.90;99.90
34574;DHT22;20809;49.594;8.734;2022-08-19T07:43:21;24.70;99.90
34574;DHT22;20809;49.594;8.734;2022-08-19T07:46:25;24.60;99.90
34574;DHT22;20809;49.594;8.734;2022-08-19T07:49:27;24.70;99.90
34574;DHT22;20809;49.594;8.734;2022-08-19T07:52:30;24.70;99.90
34574;DHT22;20809;49.594;8.734;2022-08-19T07:55:31;24.70;99.90
34574;DHT22;20809;49.594;8.734;2022-08-19T07:58:35;24.40;99.90
34574;DHT22;20809;49.594;8.734;2022-08-19T08:01:37;24.00;99.90
34574;DHT22;20809;49.594;8.734;2022-08-19T08:04:40;24.00;99.90
34574;DHT22;20809;49.594;8.734;2022-08-19T08:07:59;23.90;99.90
34574;DHT22;20809;49.594;8.734;2022-08-19T08:11:20;24.00;99.90
34574;DHT22;20809;49.594;8.734;2022-08-19T08:14:29;24.30;99.90
34574;DHT22;20809;49.594;8.734;2022-08-19T08:17:31;24.50;99.90
34574;DHT22;20809;49.594;8.734;2022-08-19T08:20:35;25.00;99.90
34574;DHT22;20809;49.594;8.734;2022-08-19T08:23:36;25.40;99.90
34574;DHT22;20809;49.594;8.734;2022-08-19T08:26:37;25.90;99.90
34574;DHT22;20809;49.594;8.734;2022-08-19T08:29:41;25.80;99.90
34574;DHT22;20809;49.594;8.734;2022-08-19T08:32:42;25.60;99.90
34574;DHT22;20809;49.594;8.734;2022-08-19T08:35:43;25.60;99.90
34574;DHT22;20809;49.594;8.734;2022-08-19T08:38:46;25.40;99.90
34574;DHT22;20809;49.594;8.734;2022-08-19T08:42:28;25.20;99.90
34574;DHT22;20809;49.594;8.734;2022-08-19T08:45:33;25.20;99.90
34574;DHT22;20809;49.594;8.734;2022-08-19T08:52:13;25.40;99.90
34574;DHT22;20809;49.594;8.734;2022-08-19T08:55:19;25.50;99.90
34574;DHT22;20809;49.594;8.734;2022-08-19T08:58:28;25.60;99.90
34574;DHT22;20809;49.594;8.734;2022-08-19T09:01:31;25.90;99.90
34574;DHT22;20809;49.594;8.734;2022-08-19T09:04:31;26.30;99.90
34574;DHT22;20809;49.594;8.734;2022-08-19T09:10:53;26.70;99.90
34574;DHT22;20809;49.594;8.734;2022-08-19T09:17:05;26.80;99.90
34574;DHT22;20809;49.594;8.734;2022-08-19T09:20:23;26.30;99.90
34574;DHT22;20809;49.594;8.734;2022-08-19T09:23:24;26.20;99.90
34574;DHT22;20809;49.594;8.734;2022-08-19T09:26:25;26.30;99.90
34574;DHT22;20809;49.594;8.734;2022-08-19T09:29:25;26.40;99.90
34574;DHT22;20809;49.594;8.734;2022-08-19T09:32:26;26.60;99.90
34574;DHT22;20809;49.594;8.734;2022-08-19T09:35:29;27.00;99.90
34574;DHT22;20809;49.594;8.734;2022-08-19T09:38:30;26.90;99.90
34574;DHT22;20809;49.594;8.734;2022-08-19T09:41:31;26.60;99.90
34574;DHT22;20809;49.594;8.734;2022-08-19T09:44:32;26.30;99.90
34574;DHT22;20809;49.594;8.734;2022-08-19T09:47:35;26.30;99.90
34574;DHT22;20809;49.594;8.734;2022-08-19T09:50:38;26.40;99.90
34574;DHT22;20809;49.594;8.734;2022-08-19T09:53:39;26.90;99.90
34574;DHT22;20809;49.594;8.734;2022-08-19T09:56:40;27.00;99.90
34574;DHT22;20809;49.594;8.734;2022-08-19T09:59:40;27.10;99.90
34574;DHT22;20809;49.594;8.734;2022-08-19T10:02:41;27.30;99.90
34574;DHT22;20809;49.594;8.734;2022-08-19T10:05:42;27.60;99.90
34574;DHT22;20809;49.594;8.734;2022-08-19T10:08:50;27.70;99.90
34574;DHT22;20809;49.594;8.734;2022-08-19T10:11:52;27.30;99.90
34574;DHT22;20809;49.594;8.734;2022-08-19T10:14:53;27.20;99.90
34574;DHT22;20809;49.594;8.734;2022-08-19T10:17:54;27.00;99.90
34574;DHT22;20809;49.594;8.734;2022-08-19T10:21:04;26.90;99.90
34574;DHT22;20809;49.594;8.734;2022-08-19T10:24:08;27.30;99.90
34574;DHT22;20809;49.594;8.734;2022-08-19T10:27:09;28.00;99.90
34574;DHT22;20809;49.594;8.734;2022-08-19T10:30:10;28.30;99.90
34574;DHT22;20809;49.594;8.734;2022-08-19T10:33:11;28.40;99.90
34574;DHT22;20809;49.594;8.734;2022-08-19T10:36:19;28.40;99.90
34574;DHT22;20809;49.594;8.734;2022-08-19T10:39:20;28.80;99.90
34574;DHT22;20809;49.594;8.734;2022-08-19T10:42:23;28.60;99.90
34574;DHT22;20809;49.594;8.734;2022-08-19T10:45:24;28.10;99.90
34574;DHT22;20809;49.594;8.734;2022-08-19T10:48:27;27.80;99.90
34574;DHT22;20809;49.594;8.734;2022-08-19T10:51:28;27.80;99.90
34574;DHT22;20809;49.594;8.734;2022-08-19T10:54:47;28.10;99.90
34574;DHT22;20809;49.594;8.734;2022-08-19T10:58:12;28.60;99.90
34574;DHT22;20809;49.594;8.734;2022-08-19T11:01:13;28.60;99.90
34574;DHT22;20809;49.594;8.734;2022-08-19T11:04:14;28.00;99.90
34574;DHT22;20809;49.594;8.734;2022-08-19T11:07:17;27.60;99.90
34574;DHT22;20809;49.594;8.734;2022-08-19T11:10:18;27.50;99.90
34574;DHT22;20809;49.594;8.734;2022-08-19T11:13:19;27.70;99.90
34574;DHT22;20809;49.594;8.734;2022-08-19T11:16:21;28.00;99.90
34574;DHT22;20809;49.594;8.734;2022-08-19T11:19:22;28.50;99.90
34574;DHT22;20809;49.594;8.734;2022-08-19T11:22:24;28.80;99.90
34574;DHT22;20809;49.594;8.734;2022-08-19T11:25:24;28.80;99.90
34574;DHT22;20809;49.594;8.734;2022-08-19T11:28:25;28.00;99.90
34574;DHT22;20809;49.594;8.734;2022-08-19T11:31:29;27.40;99.90
34574;DHT22;20809;49.594;8.734;2022-08-19T11:34:31;27.40;99.90
34574;DHT22;20809;49.594;8.734;2022-08-19T11:37:32;27.50;99.90
34574;DHT22;20809;49.594;8.734;2022-08-19T11:40:37;27.40;99.90
34574;DHT22;20809;49.594;8.734;2022-08-19T11:43:38;27.60;99.90
34574;DHT22;20809;49.594;8.734;2022-08-19T11:46:42;28.10;99.90
34574;DHT22;20809;49.594;8.734;2022-08-19T11:49:46;28.20;99.90
34574;DHT22;20809;49.594;8.734;2022-08-19T11:52:48;28.00;99.90
34574;DHT22;20809;49.594;8.734;2022-08-19T11:55:52;28.20;99.90
34574;DHT22;20809;49.594;8.734;2022-08-19T11:58:56;28.40;99.90
34574;DHT22;20809;49.594;8.734;2022-08-19T12:01:57;28.30;99.90
34574;DHT22;20809;49.594;8.734;2022-08-19T12:04:58;28.40;99.90
34574;DHT22;20809;49.594;8.734;2022-08-19T12:07:58;28.30;99.90
34574;DHT22;20809;49.594;8.734;2022-08-19T12:10:59;27.90;99.90
34574;DHT22;20809;49.594;8.734;2022-08-19T12:14:03;27.60;99.90
34574;DHT22;20809;49.594;8.734;2022-08-19T12:17:03;27.60;99.90
34574;DHT22;20809;49.594;8.734;2022-08-19T12:20:07;27.50;99.90
34574;DHT22;20809;49.594;8.734;2022-08-19T12:23:10;27.70;99.90
34574;DHT22;20809;49.594;8.734;2022-08-19T12:26:11;28.10;97.90
34574;DHT22;20809;49.594;8.734;2022-08-19T12:29:12;28.50;98.00
34574;DHT22;20809;49.594;8.734;2022-08-19T12:32:13;29.00;97.90
34574;DHT22;20809;49.594;8.734;2022-08-19T12:35:13;29.30;97.90
34574;DHT22;20809;49.594;8.734;2022-08-19T12:38:14;29.40;97.50
34574;DHT22;20809;49.594;8.734;2022-08-19T12:41:16;29.60;97.30
34574;DHT22;20809;49.594;8.734;2022-08-19T12:44:19;29.60;97.50
34574;DHT22;20809;49.594;8.734;2022-08-19T12:47:19;29.70;95.60
34574;DHT22;20809;49.594;8.734;2022-08-19T12:50:21;29.80;96.00
34574;DHT22;20809;49.594;8.734;2022-08-19T12:53:22;30.20;95.80
34574;DHT22;20809;49.594;8.734;2022-08-19T12:56:23;30.60;94.70
34574;DHT22;20809;49.594;8.734;2022-08-19T12:59:24;30.90;93.70
34574;DHT22;20809;49.594;8.734;2022-08-19T13:02:24;30.80;91.90
34574;DHT22;20809;49.594;8.734;2022-08-19T13:05:30;30.90;91.80
34574;DHT22;20809;49.594;8.734;2022-08-19T13:08:31;31.00;90.90
34574;DHT22;20809;49.594;8.734;2022-08-19T13:11:32;30.80;90.40
34574;DHT22;20809;49.594;8.734;2022-08-19T13:14:34;30.90;89.20
34574;DHT22;20809;49.594;8.734;2022-08-19T13:17:35;31.00;88.40
34574;DHT22;20809;49.594;8.734;2022-08-19T13:20:37;30.90;89.60
34574;DHT22;20809;49.594;8.734;2022-08-19T13:23:39;30.90;89.20
34574;DHT22;20809;49.594;8.734;2022-08-19T13:26:41;30.80;89.60
34574;DHT22;20809;49.594;8.734;2022-08-19T13:29:42;31.00;88.00
34574;DHT22;20809;49.594;8.734;2022-08-19T13:33:01;30.70;86.40
34574;DHT22;20809;49.594;8.734;2022-08-19T13:36:11;30.70;84.10
34574;DHT22;20809;49.594;8.734;2022-08-19T13:39:12;30.60;84.50
34574;DHT22;20809;49.594;8.734;2022-08-19T13:42:13;30.80;83.10
34574;DHT22;20809;49.594;8.734;2022-08-19T13:45:16;30.70;82.30
34574;DHT22;20809;49.594;8.734;2022-08-19T13:48:18;30.70;82.20
34574;DHT22;20809;49.594;8.734;2022-08-19T13:51:19;30.20;81.80
34574;DHT22;20809;49.594;8.734;2022-08-19T13:54:19;30.10;81.20
34574;DHT22;20809;49.594;8.734;2022-08-19T13:57:20;30.00;81.50
34574;DHT22;20809;49.594;8.734;2022-08-19T14:00:23;30.10;82.00
34574;DHT22;20809;49.594;8.734;2022-08-19T14:03:35;30.40;82.80
34574;DHT22;20809;49.594;8.734;2022-08-19T14:06:36;30.50;80.90
34574;DHT22;20809;49.594;8.734;2022-08-19T14:09:37;30.40;81.40
34574;DHT22;20809;49.594;8.734;2022-08-19T14:12:39;30.60;81.00
34574;DHT22;20809;49.594;8.734;2022-08-19T14:15:39;30.90;78.60
34574;DHT22;20809;49.594;8.734;2022-08-19T14:18:41;31.00;79.00
34574;DHT22;20809;49.594;8.734;2022-08-19T14:21:42;30.80;79.10
34574;DHT22;20809;49.594;8.734;2022-08-19T14:24:43;30.90;79.20
34574;DHT22;20809;49.594;8.734;2022-08-19T14:27:44;31.10;79.20
34574;DHT22;20809;49.594;8.734;2022-08-19T14:30:45;31.20;77.70
34574;DHT22;20809;49.594;8.734;2022-08-19T14:33:46;30.90;78.10
34574;DHT22;20809;49.594;8.734;2022-08-19T14:36:47;30.80;77.90
34574;DHT22;20809;49.594;8.734;2022-08-19T14:39:48;30.70;78.20
34574;DHT22;20809;49.594;8.734;2022-08-19T14:42:49;30.70;78.80
34574;DHT22;20809;49.594;8.734;2022-08-19T14:45:49;31.10;77.70
34574;DHT22;20809;49.594;8.734;2022-08-19T14:48:51;31.40;77.40
34574;DHT22;20809;49.594;8.734;2022-08-19T14:51:52;31.40;77.70
34574;DHT22;20809;49.594;8.734;2022-08-19T14:54:53;31.50;77.70
34574;DHT22;20809;49.594;8.734;2022-08-19T14:57:53;31.60;76.90
34574;DHT22;20809;49.594;8.734;2022-08-19T15:00:54;31.60;75.60
34574;DHT22;20809;49.594;8.734;2022-08-19T15:03:55;31.40;74.30
34574;DHT22;20809;49.594;8.734;2022-08-19T15:06:56;31.30;74.50
34574;DHT22;20809;49.594;8.734;2022-08-19T15:09:57;31.40;74.70
34574;DHT22;20809;49.594;8.734;2022-08-19T15:12:58;31.70;74.60
34574;DHT22;20809;49.594;8.734;2022-08-19T15:15:59;32.00;73.10
34574;DHT22;20809;49.594;8.734;2022-08-19T15:19:01;32.30;72.90
34574;DHT22;20809;49.594;8.734;2022-08-19T15:22:02;32.30;70.70
34574;DHT22;20809;49.594;8.734;2022-08-19T15:25:04;31.50;71.70
34574;DHT22;20809;49.594;8.734;2022-08-19T15:28:05;30.80;70.20
34574;DHT22;20809;49.594;8.734;2022-08-19T15:31:06;30.30;71.50
34574;DHT22;20809;49.594;8.734;2022-08-19T15:34:07;30.00;73.00
34574;DHT22;20809;49.594;8.734;2022-08-19T15:37:07;30.00;73.40
34574;DHT22;20809;49.594;8.734;2022-08-19T15:40:08;30.10;74.20
34574;DHT22;20809;49.594;8.734;2022-08-19T15:43:14;30.20;72.80
34574;DHT22;20809;49.594;8.734;2022-08-19T15:46:17;30.00;70.40
34574;DHT22;20809;49.594;8.734;2022-08-19T15:49:19;29.90;70.20
34574;DHT22;20809;49.594;8.734;2022-08-19T15:52:20;29.80;71.10
34574;DHT22;20809;49.594;8.734;2022-08-19T15:55:25;29.80;71.80
34574;DHT22;20809;49.594;8.734;2022-08-19T15:58:25;29.60;72.70
34574;DHT22;20809;49.594;8.734;2022-08-19T16:01:55;29.50;73.40
34574;DHT22;20809;49.594;8.734;2022-08-19T16:05:18;29.40;73.40
34574;DHT22;20809;49.594;8.734;2022-08-19T16:08:38;29.30;72.30
34574;DHT22;20809;49.594;8.734;2022-08-19T16:11:39;29.20;72.70
34574;DHT22;20809;49.594;8.734;2022-08-19T16:14:41;29.00;73.00
34574;DHT22;20809;49.594;8.734;2022-08-19T16:17:42;29.00;73.60
34574;DHT22;20809;49.594;8.734;2022-08-19T16:20:43;29.00;73.00
34574;DHT22;20809;49.594;8.734;2022-08-19T16:23:46;28.90;73.20
34574;DHT22;20809;49.594;8.734;2022-08-19T16:26:47;28.80;73.40
34574;DHT22;20809;49.594;8.734;2022-08-19T16:29:48;28.80;73.20
34574;DHT22;20809;49.594;8.734;2022-08-19T16:32:49;28.80;73.00
34574;DHT22;20809;49.594;8.734;2022-08-19T16:35:50;28.60;73.80
34574;DHT22;20809;49.594;8.734;2022-08-19T16:38:51;28.50;74.60
34574;DHT22;20809;49.594;8.734;2022-08-19T16:41:52;28.50;75.30
34574;DHT22;20809;49.594;8.734;2022-08-19T16:44:53;28.50;75.20
34574;DHT22;20809;49.594;8.734;2022-08-19T16:47:53;28.60;76.00
34574;DHT22;20809;49.594;8.734;2022-08-19T16:50:57;28.60;75.80
34574;DHT22;20809;49.594;8.734;2022-08-19T16:53:59;28.50;75.90
34574;DHT22;20809;49.594;8.734;2022-08-19T16:57:01;28.50;76.30
34574;DHT22;20809;49.594;8.734;2022-08-19T17:00:04;28.50;76.60
34574;DHT22;20809;49.594;8.734;2022-08-19T17:03:10;28.50;76.20
34574;DHT22;20809;49.594;8.734;2022-08-19T17:06:14;28.70;76.20
34574;DHT22;20809;49.594;8.734;2022-08-19T17:09:15;28.80;75.30
34574;DHT22;20809;49.594;8.734;2022-08-19T17:12:18;28.80;75.90
34574;DHT22;20809;49.594;8.734;2022-08-19T17:15:18;28.90;74.80
34574;DHT22;20809;49.594;8.734;2022-08-19T17:18:20;29.00;75.00
34574;DHT22;20809;49.594;8.734;2022-08-19T17:21:24;29.10;74.60
34574;DHT22;20809;49.594;8.734;2022-08-19T17:24:27;29.10;75.00
34574;DHT22;20809;49.594;8.734;2022-08-19T17:27:28;28.90;75.00
34574;DHT22;20809;49.594;8.734;2022-08-19T17:30:28;28.60;75.50
34574;DHT22;20809;49.594;8.734;2022-08-19T17:33:31;28.40;75.70
34574;DHT22;20809;49.594;8.734;2022-08-19T17:36:31;28.20;76.20
34574;DHT22;20809;49.594;8.734;2022-08-19T17:39:33;28.00;76.70
34574;DHT22;20809;49.594;8.734;2022-08-19T17:42:34;27.90;76.90
34574;DHT22;20809;49.594;8.734;2022-08-19T17:45:37;27.90;77.80
34574;DHT22;20809;49.594;8.734;2022-08-19T17:48:38;27.80;78.30
34574;DHT22;20809;49.594;8.734;2022-08-19T17:51:42;27.60;79.40
34574;DHT22;20809;49.594;8.734;2022-08-19T17:54:44;27.50;79.60
34574;DHT22;20809;49.594;8.734;2022-08-19T17:57:46;27.40;80.10
34574;DHT22;20809;49.594;8.734;2022-08-19T18:00:46;27.30;80.60
34574;DHT22;20809;49.594;8.734;2022-08-19T18:03:48;27.30;80.80
34574;DHT22;20809;49.594;8.734;2022-08-19T18:06:48;27.30;81.00
34574;DHT22;20809;49.594;8.734;2022-08-19T18:09:49;27.20;81.00
34574;DHT22;20809;49.594;8.734;2022-08-19T18:12:52;27.10;81.10
34574;DHT22;20809;49.594;8.734;2022-08-19T18:15:53;27.00;81.60
34574;DHT22;20809;49.594;8.734;2022-08-19T18:18:53;26.90;82.20
34574;DHT22;20809;49.594;8.734;2022-08-19T18:21:54;26.80;82.60
34574;DHT22;20809;49.594;8.734;2022-08-19T18:24:56;26.70;83.00
34574;DHT22;20809;49.594;8.734;2022-08-19T18:27:59;26.60;83.50
34574;DHT22;20809;49.594;8.734;2022-08-19T18:31:00;26.50;83.70
34574;DHT22;20809;49.594;8.734;2022-08-19T18:34:04;26.40;83.90
34574;DHT22;20809;49.594;8.734;2022-08-19T18:37:14;26.30;84.60
34574;DHT22;20809;49.594;8.734;2022-08-19T18:40:28;26.20;85.20
34574;DHT22;20809;49.594;8.734;2022-08-19T18:43:47;26.10;85.60
34574;DHT22;20809;49.594;8.734;2022-08-19T18:47:07;25.90;86.50
34574;DHT22;20809;49.594;8.734;2022-08-19T18:50:26;25.80;86.70
34574;DHT22;20809;49.594;8.734;2022-08-19T18:53:30;25.60;87.30
34574;DHT22;20809;49.594;8.734;2022-08-19T18:56:31;25.50;87.80
34574;DHT22;20809;49.594;8.734;2022-08-19T18:59:32;25.40;88.60
34574;DHT22;20809;49.594;8.734;2022-08-19T19:02:36;25.30;89.10
34574;DHT22;20809;49.594;8.734;2022-08-19T19:05:40;25.20;89.10
34574;DHT22;20809;49.594;8.734;2022-08-19T19:08:41;25.20;90.10
34574;DHT22;20809;49.594;8.734;2022-08-19T19:11:44;25.10;90.30
34574;DHT22;20809;49.594;8.734;2022-08-19T19:14:45;24.80;90.60
34574;DHT22;20809;49.594;8.734;2022-08-19T19:17:45;24.60;90.90
34574;DHT22;20809;49.594;8.734;2022-08-19T19:20:46;24.50;91.20
34574;DHT22;20809;49.594;8.734;2022-08-19T19:23:48;24.30;91.70
34574;DHT22;20809;49.594;8.734;2022-08-19T19:26:50;24.20;92.40
34574;DHT22;20809;49.594;8.734;2022-08-19T19:29:51;24.10;92.50
34574;DHT22;20809;49.594;8.734;2022-08-19T19:32:56;23.90;92.90